Myrtle Beach International Airport Myrtle Beach US
ICAO: KMYR
IATA: MYR
Category: Large
Scheduled Services: Yes

Elevation: 25 ft
TransAlt. 18000 ft.

Airport Communications:
APP/DEP:119.2
ATIS:123.925
AWOS 3:124.5
CLNC DEL:119.7
CTAF:128.45
GND:120.3
TWR:128.45
UNICOM:122.95

KMYR Zoom In..

Runways:

(A) RW 18 length 9503 ft width 150 ft
ILS 109.50 / hdg 174

(B) RW 36 length 9503 ft width 150 ft
ILS 111.90 / hdg 354

Location; KMYR
Day. 29 / Time. 02.56 Zulu
* Altimeter: 30.10
* Temperature: 24° c. 75.2°f.
* Wind from: 190° Speed 08 kn.
Dewpoint: 24° c.
Visibility: 10 Statute Miles.
Clouds: Clear (automated report).

KMYR 290256Z AUTO 19008KT 10SM CLR 24/24 A3010 RMK AO2 SLP191 T02440244 53010


Wind From 190°
Speed 08 kn.

 
 
jpsmedia worldairports.se 2020   terms of use